sensor_id;sensor_type;location;lat;lon;timestamp;P1;P2;P0
78316;PMS7003;67572;50.930;18.276;2023-04-24T00:02:26;23.00;19.50;15.25
78316;PMS7003;67572;50.930;18.276;2023-04-24T00:05:30;18.75;17.50;15.00
78316;PMS7003;67572;50.930;18.276;2023-04-24T00:08:34;12.75;12.00;11.00
78316;PMS7003;67572;50.930;18.276;2023-04-24T00:11:38;16.75;16.25;12.00
78316;PMS7003;67572;50.930;18.276;2023-04-24T00:14:42;15.00;12.75;7.50
78316;PMS7003;67572;50.930;18.276;2023-04-24T00:21:23;18.75;18.75;14.50
78316;PMS7003;67572;50.930;18.276;2023-04-24T00:24:27;16.50;15.50;13.00
78316;PMS7003;67572;50.930;18.276;2023-04-24T00:27:31;18.75;15.50;12.00
78316;PMS7003;67572;50.930;18.276;2023-04-24T00:30:34;18.00;16.00;12.00
78316;PMS7003;67572;50.930;18.276;2023-04-24T00:33:40;16.00;13.25;10.00
78316;PMS7003;67572;50.930;18.276;2023-04-24T00:36:44;14.75;13.25;10.50
78316;PMS7003;67572;50.930;18.276;2023-04-24T00:39:48;17.25;13.75;11.75
78316;PMS7003;67572;50.930;18.276;2023-04-24T00:42:51;9.00;8.75;6.25
78316;PMS7003;67572;50.930;18.276;2023-04-24T00:45:57;16.75;15.50;12.25
78316;PMS7003;67572;50.930;18.276;2023-04-24T00:49:04;14.50;14.50;10.00
78316;PMS7003;67572;50.930;18.276;2023-04-24T00:52:08;17.33;13.67;9.67
78316;PMS7003;67572;50.930;18.276;2023-04-24T00:55:12;22.67;16.00;11.00
78316;PMS7003;67572;50.930;18.276;2023-04-24T00:58:16;21.00;13.00;9.25
78316;PMS7003;67572;50.930;18.276;2023-04-24T01:01:20;15.25;14.50;10.50
78316;PMS7003;67572;50.930;18.276;2023-04-24T01:04:26;28.00;19.75;13.00
78316;PMS7003;67572;50.930;18.276;2023-04-24T01:07:30;15.25;15.25;12.25
78316;PMS7003;67572;50.930;18.276;2023-04-24T01:10:35;14.00;12.25;10.00
78316;PMS7003;67572;50.930;18.276;2023-04-24T01:13:41;12.00;9.75;8.25
78316;PMS7003;67572;50.930;18.276;2023-04-24T01:16:45;11.25;10.00;6.75
78316;PMS7003;67572;50.930;18.276;2023-04-24T01:19:50;14.00;12.50;12.00
78316;PMS7003;67572;50.930;18.276;2023-04-24T01:22:56;16.25;13.25;9.75
78316;PMS7003;67572;50.930;18.276;2023-04-24T01:26:00;13.00;13.00;11.25
78316;PMS7003;67572;50.930;18.276;2023-04-24T01:29:04;14.75;11.75;10.00
78316;PMS7003;67572;50.930;18.276;2023-04-24T01:32:08;12.00;12.00;9.00
78316;PMS7003;67572;50.930;18.276;2023-04-24T01:35:13;13.50;13.00;11.50
78316;PMS7003;67572;50.930;18.276;2023-04-24T01:38:18;15.75;15.75;11.75
78316;PMS7003;67572;50.930;18.276;2023-04-24T01:41:22;18.75;14.50;13.00
78316;PMS7003;67572;50.930;18.276;2023-04-24T01:44:26;18.75;18.75;12.75
78316;PMS7003;67572;50.930;18.276;2023-04-24T01:47:30;20.00;15.50;12.00
78316;PMS7003;67572;50.930;18.276;2023-04-24T01:50:34;13.50;13.00;12.00
78316;PMS7003;67572;50.930;18.276;2023-04-24T01:53:39;19.00;16.75;12.75
78316;PMS7003;67572;50.930;18.276;2023-04-24T01:56:43;17.25;15.75;11.25
78316;PMS7003;67572;50.930;18.276;2023-04-24T01:59:48;22.00;18.75;15.25
78316;PMS7003;67572;50.930;18.276;2023-04-24T02:02:51;18.33;18.33;13.00
78316;PMS7003;67572;50.930;18.276;2023-04-24T02:05:55;21.50;18.50;14.75
78316;PMS7003;67572;50.930;18.276;2023-04-24T02:09:00;23.00;18.75;16.00
78316;PMS7003;67572;50.930;18.276;2023-04-24T02:12:03;14.25;13.75;10.00
78316;PMS7003;67572;50.930;18.276;2023-04-24T02:15:07;22.00;16.00;12.00
78316;PMS7003;67572;50.930;18.276;2023-04-24T02:18:11;16.33;16.33;12.00
78316;PMS7003;67572;50.930;18.276;2023-04-24T02:21:15;20.67;17.00;12.67
78316;PMS7003;67572;50.930;18.276;2023-04-24T02:24:20;21.25;19.50;14.25
78316;PMS7003;67572;50.930;18.276;2023-04-24T02:27:24;20.25;17.25;12.75
78316;PMS7003;67572;50.930;18.276;2023-04-24T02:30:27;18.50;16.75;13.25
78316;PMS7003;67572;50.930;18.276;2023-04-24T02:33:31;26.00;20.00;12.75
78316;PMS7003;67572;50.930;18.276;2023-04-24T02:36:34;21.25;19.75;16.00
78316;PMS7003;67572;50.930;18.276;2023-04-24T02:39:39;15.75;14.00;12.75
78316;PMS7003;67572;50.930;18.276;2023-04-24T02:42:42;19.33;18.67;14.33
78316;PMS7003;67572;50.930;18.276;2023-04-24T02:45:46;19.67;18.00;13.67
78316;PMS7003;67572;50.930;18.276;2023-04-24T02:48:49;17.33;17.33;13.00
78316;PMS7003;67572;50.930;18.276;2023-04-24T02:51:53;21.67;20.00;16.00
78316;PMS7003;67572;50.930;18.276;2023-04-24T02:54:58;22.00;19.67;13.00
78316;PMS7003;67572;50.930;18.276;2023-04-24T02:58:01;17.00;17.00;14.33
78316;PMS7003;67572;50.930;18.276;2023-04-24T03:01:04;17.67;16.00;13.67
78316;PMS7003;67572;50.930;18.276;2023-04-24T03:04:08;16.00;16.00;14.33
78316;PMS7003;67572;50.930;18.276;2023-04-24T03:07:12;20.00;16.67;10.33
78316;PMS7003;67572;50.930;18.276;2023-04-24T03:10:17;11.00;10.33;8.33
78316;PMS7003;67572;50.930;18.276;2023-04-24T03:13:22;16.33;13.00;7.00
78316;PMS7003;67572;50.930;18.276;2023-04-24T03:16:25;16.33;11.00;10.00
78316;PMS7003;67572;50.930;18.276;2023-04-24T03:19:29;10.00;10.00;7.33
78316;PMS7003;67572;50.930;18.276;2023-04-24T03:22:38;10.00;10.00;8.00
78316;PMS7003;67572;50.930;18.276;2023-04-24T03:25:44;19.33;14.67;10.00
78316;PMS7003;67572;50.930;18.276;2023-04-24T03:28:47;16.00;16.00;11.00
78316;PMS7003;67572;50.930;18.276;2023-04-24T03:31:51;13.67;13.67;10.67
78316;PMS7003;67572;50.930;18.276;2023-04-24T03:34:54;19.33;17.67;13.67
78316;PMS7003;67572;50.930;18.276;2023-04-24T03:37:58;22.67;19.00;16.33
78316;PMS7003;67572;50.930;18.276;2023-04-24T03:41:18;19.33;19.33;14.67
78316;PMS7003;67572;50.930;18.276;2023-04-24T03:44:29;20.00;17.67;15.00
78316;PMS7003;67572;50.930;18.276;2023-04-24T03:47:32;24.25;22.75;18.75
78316;PMS7003;67572;50.930;18.276;2023-04-24T03:50:38;18.25;18.25;15.00
78316;PMS7003;67572;50.930;18.276;2023-04-24T03:53:44;21.50;19.50;16.00
78316;PMS7003;67572;50.930;18.276;2023-04-24T03:56:53;19.33;19.33;14.33
78316;PMS7003;67572;50.930;18.276;2023-04-24T03:59:58;23.67;19.00;13.67
78316;PMS7003;67572;50.930;18.276;2023-04-24T04:03:01;19.67;18.67;16.00
78316;PMS7003;67572;50.930;18.276;2023-04-24T04:06:06;27.00;23.67;19.00
78316;PMS7003;67572;50.930;18.276;2023-04-24T04:09:09;20.00;19.00;14.00
78316;PMS7003;67572;50.930;18.276;2023-04-24T04:12:14;19.67;19.33;16.00
78316;PMS7003;67572;50.930;18.276;2023-04-24T04:15:17;22.00;20.00;16.00
78316;PMS7003;67572;50.930;18.276;2023-04-24T04:18:22;15.00;14.33;12.67
78316;PMS7003;67572;50.930;18.276;2023-04-24T04:21:25;21.67;17.33;13.33
78316;PMS7003;67572;50.930;18.276;2023-04-24T04:24:39;22.00;21.00;17.50
78316;PMS7003;67572;50.930;18.276;2023-04-24T04:27:45;25.33;22.33;15.00
78316;PMS7003;67572;50.930;18.276;2023-04-24T04:30:49;21.75;21.50;16.75
78316;PMS7003;67572;50.930;18.276;2023-04-24T04:33:57;23.25;21.50;15.00
78316;PMS7003;67572;50.930;18.276;2023-04-24T04:37:00;25.00;19.50;14.50
78316;PMS7003;67572;50.930;18.276;2023-04-24T04:40:34;11.25;11.25;9.75
78316;PMS7003;67572;50.930;18.276;2023-04-24T04:43:41;15.75;15.75;14.25
78316;PMS7003;67572;50.930;18.276;2023-04-24T04:46:45;20.50;19.25;16.25
78316;PMS7003;67572;50.930;18.276;2023-04-24T04:49:56;20.75;19.00;12.00
78316;PMS7003;67572;50.930;18.276;2023-04-24T04:53:01;19.50;18.25;14.50
78316;PMS7003;67572;50.930;18.276;2023-04-24T04:56:08;23.25;22.00;16.50
78316;PMS7003;67572;50.930;18.276;2023-04-24T04:59:18;18.50;18.50;14.50
78316;PMS7003;67572;50.930;18.276;2023-04-24T05:02:24;21.25;19.75;16.00
78316;PMS7003;67572;50.930;18.276;2023-04-24T05:05:29;25.25;24.25;17.75
78316;PMS7003;67572;50.930;18.276;2023-04-24T05:08:32;25.75;24.75;19.75
78316;PMS7003;67572;50.930;18.276;2023-04-24T05:11:37;18.00;16.00;11.75
78316;PMS7003;67572;50.930;18.276;2023-04-24T05:14:42;24.25;24.00;17.00
78316;PMS7003;67572;50.930;18.276;2023-04-24T05:17:46;18.75;17.75;13.50
78316;PMS7003;67572;50.930;18.276;2023-04-24T05:20:50;25.75;21.75;16.00
78316;PMS7003;67572;50.930;18.276;2023-04-24T05:23:54;18.00;18.00;15.00
78316;PMS7003;67572;50.930;18.276;2023-04-24T05:27:18;22.00;21.00;12.25
78316;PMS7003;67572;50.930;18.276;2023-04-24T05:30:24;22.50;19.00;15.00
78316;PMS7003;67572;50.930;18.276;2023-04-24T05:33:28;19.50;16.75;12.50
78316;PMS7003;67572;50.930;18.276;2023-04-24T05:39:36;10.50;7.25;3.25
78316;PMS7003;67572;50.930;18.276;2023-04-24T05:42:39;18.50;18.00;14.50
78316;PMS7003;67572;50.930;18.276;2023-04-24T05:45:44;18.00;17.75;14.00
78316;PMS7003;67572;50.930;18.276;2023-04-24T05:48:48;21.75;16.75;13.25
78316;PMS7003;67572;50.930;18.276;2023-04-24T05:51:52;17.25;17.25;15.50
78316;PMS7003;67572;50.930;18.276;2023-04-24T05:54:56;16.00;16.00;13.00
78316;PMS7003;67572;50.930;18.276;2023-04-24T05:58:04;22.67;18.67;15.67
78316;PMS7003;67572;50.930;18.276;2023-04-24T06:01:11;14.33;12.33;10.00
78316;PMS7003;67572;50.930;18.276;2023-04-24T06:04:18;18.33;13.67;12.33
78316;PMS7003;67572;50.930;18.276;2023-04-24T06:07:22;17.00;17.00;13.33
78316;PMS7003;67572;50.930;18.276;2023-04-24T06:10:25;17.67;14.67;11.67
78316;PMS7003;67572;50.930;18.276;2023-04-24T06:13:29;19.00;16.67;12.67
78316;PMS7003;67572;50.930;18.276;2023-04-24T06:16:57;26.00;20.33;16.33
78316;PMS7003;67572;50.930;18.276;2023-04-24T06:20:11;17.67;16.00;11.67
78316;PMS7003;67572;50.930;18.276;2023-04-24T06:23:14;19.33;17.67;14.67
78316;PMS7003;67572;50.930;18.276;2023-04-24T06:26:17;20.33;17.33;13.33
78316;PMS7003;67572;50.930;18.276;2023-04-24T06:29:21;19.00;19.00;16.33
78316;PMS7003;67572;50.930;18.276;2023-04-24T06:32:26;18.00;15.00;12.33
78316;PMS7003;67572;50.930;18.276;2023-04-24T06:35:30;15.33;15.33;14.00
78316;PMS7003;67572;50.930;18.276;2023-04-24T06:38:33;17.33;14.00;12.67
78316;PMS7003;67572;50.930;18.276;2023-04-24T06:41:37;18.67;16.33;12.67
78316;PMS7003;67572;50.930;18.276;2023-04-24T06:44:49;15.00;14.00;9.67
78316;PMS7003;67572;50.930;18.276;2023-04-24T06:47:54;18.67;16.33;12.00
78316;PMS7003;67572;50.930;18.276;2023-04-24T06:50:57;14.00;13.33;10.00
78316;PMS7003;67572;50.930;18.276;2023-04-24T06:54:01;20.00;15.33;14.00
78316;PMS7003;67572;50.930;18.276;2023-04-24T06:57:04;15.00;11.00;8.67
78316;PMS7003;67572;50.930;18.276;2023-04-24T07:00:08;13.33;11.67;8.33
78316;PMS7003;67572;50.930;18.276;2023-04-24T07:03:14;16.00;14.67;11.67
78316;PMS7003;67572;50.930;18.276;2023-04-24T07:06:17;17.67;15.00;12.00
78316;PMS7003;67572;50.930;18.276;2023-04-24T07:09:25;14.67;13.33;11.00
78316;PMS7003;67572;50.930;18.276;2023-04-24T07:12:29;14.33;13.33;11.67
78316;PMS7003;67572;50.930;18.276;2023-04-24T07:15:32;18.00;18.00;15.00
78316;PMS7003;67572;50.930;18.276;2023-04-24T07:18:38;18.33;17.67;12.33
78316;PMS7003;67572;50.930;18.276;2023-04-24T07:21:42;18.00;16.00;12.33
78316;PMS7003;67572;50.930;18.276;2023-04-24T07:24:45;22.67;19.00;15.00
78316;PMS7003;67572;50.930;18.276;2023-04-24T07:27:48;13.33;13.33;11.00
78316;PMS7003;67572;50.930;18.276;2023-04-24T07:30:52;22.67;21.00;15.00
78316;PMS7003;67572;50.930;18.276;2023-04-24T07:33:57;12.00;12.00;12.00
78316;PMS7003;67572;50.930;18.276;2023-04-24T07:37:00;22.00;18.67;13.00
78316;PMS7003;67572;50.930;18.276;2023-04-24T07:40:05;12.00;12.00;11.00
78316;PMS7003;67572;50.930;18.276;2023-04-24T07:43:09;18.00;15.00;12.67
78316;PMS7003;67572;50.930;18.276;2023-04-24T07:46:13;16.00;12.67;8.00
78316;PMS7003;67572;50.930;18.276;2023-04-24T07:49:17;11.00;11.00;9.00
78316;PMS7003;67572;50.930;18.276;2023-04-24T07:52:21;27.00;24.33;15.00
78316;PMS7003;67572;50.930;18.276;2023-04-24T07:55:24;18.67;13.00;12.33
78316;PMS7003;67572;50.930;18.276;2023-04-24T07:58:29;10.33;10.00;9.33
78316;PMS7003;67572;50.930;18.276;2023-04-24T08:01:32;11.00;10.67;7.33
78316;PMS7003;67572;50.930;18.276;2023-04-24T08:04:37;12.67;12.00;11.00
78316;PMS7003;67572;50.930;18.276;2023-04-24T08:07:41;9.67;9.67;8.33
78316;PMS7003;67572;50.930;18.276;2023-04-24T08:10:46;13.67;12.33;9.67
78316;PMS7003;67572;50.930;18.276;2023-04-24T08:13:50;16.33;15.33;12.33
78316;PMS7003;67572;50.930;18.276;2023-04-24T08:16:54;16.00;15.00;11.67
78316;PMS7003;67572;50.930;18.276;2023-04-24T08:20:08;9.33;9.33;8.67
78316;PMS7003;67572;50.930;18.276;2023-04-24T08:23:15;13.00;11.33;6.00
78316;PMS7003;67572;50.930;18.276;2023-04-24T08:26:19;13.33;12.00;9.67
78316;PMS7003;67572;50.930;18.276;2023-04-24T08:29:22;11.00;9.00;7.33
78316;PMS7003;67572;50.930;18.276;2023-04-24T08:32:26;15.00;13.00;10.00
78316;PMS7003;67572;50.930;18.276;2023-04-24T08:35:32;16.00;14.00;12.00
78316;PMS7003;67572;50.930;18.276;2023-04-24T08:38:35;8.00;8.00;8.00
78316;PMS7003;67572;50.930;18.276;2023-04-24T08:41:39;16.33;13.00;10.00
78316;PMS7003;67572;50.930;18.276;2023-04-24T08:44:45;10.00;10.00;9.00
78316;PMS7003;67572;50.930;18.276;2023-04-24T08:47:48;9.33;9.33;9.00
78316;PMS7003;67572;50.930;18.276;2023-04-24T08:50:54;10.67;10.67;9.33
78316;PMS7003;67572;50.930;18.276;2023-04-24T08:53:59;18.67;15.00;10.00
78316;PMS7003;67572;50.930;18.276;2023-04-24T08:57:04;15.00;14.33;12.33
78316;PMS7003;67572;50.930;18.276;2023-04-24T09:00:13;9.33;9.33;8.00
78316;PMS7003;67572;50.930;18.276;2023-04-24T09:03:17;13.00;11.33;10.67
78316;PMS7003;67572;50.930;18.276;2023-04-24T09:06:25;17.00;14.00;12.33
78316;PMS7003;67572;50.930;18.276;2023-04-24T09:09:30;13.67;13.00;9.67
78316;PMS7003;67572;50.930;18.276;2023-04-24T09:12:35;10.67;9.33;7.67
78316;PMS7003;67572;50.930;18.276;2023-04-24T09:15:39;9.67;9.67;8.67
78316;PMS7003;67572;50.930;18.276;2023-04-24T09:18:43;15.00;14.33;12.33
78316;PMS7003;67572;50.930;18.276;2023-04-24T09:21:51;17.33;16.00;11.33
78316;PMS7003;67572;50.930;18.276;2023-04-24T09:24:59;13.00;13.00;10.00
78316;PMS7003;67572;50.930;18.276;2023-04-24T09:28:07;14.33;14.00;12.67
78316;PMS7003;67572;50.930;18.276;2023-04-24T09:31:11;12.33;12.33;11.33
78316;PMS7003;67572;50.930;18.276;2023-04-24T09:34:19;17.33;15.33;13.67
78316;PMS7003;67572;50.930;18.276;2023-04-24T09:37:29;13.00;11.67;10.00
78316;PMS7003;67572;50.930;18.276;2023-04-24T09:40:34;13.00;13.00;9.33
78316;PMS7003;67572;50.930;18.276;2023-04-24T09:43:41;14.00;14.00;10.67
78316;PMS7003;67572;50.930;18.276;2023-04-24T09:46:45;13.33;12.67;10.67
78316;PMS7003;67572;50.930;18.276;2023-04-24T09:49:54;13.00;13.00;10.00
78316;PMS7003;67572;50.930;18.276;2023-04-24T09:53:02;16.00;14.00;11.00
78316;PMS7003;67572;50.930;18.276;2023-04-24T09:56:07;15.00;14.67;11.67
78316;PMS7003;67572;50.930;18.276;2023-04-24T09:59:14;15.00;15.00;13.00
78316;PMS7003;67572;50.930;18.276;2023-04-24T10:02:21;15.67;13.67;12.33
78316;PMS7003;67572;50.930;18.276;2023-04-24T10:05:25;15.00;13.67;10.00
78316;PMS7003;67572;50.930;18.276;2023-04-24T10:08:34;15.00;14.00;10.33
78316;PMS7003;67572;50.930;18.276;2023-04-24T10:11:41;9.00;8.33;6.00
78316;PMS7003;67572;50.930;18.276;2023-04-24T10:14:46;17.00;14.00;10.67
78316;PMS7003;67572;50.930;18.276;2023-04-24T10:17:51;15.67;13.00;10.00
78316;PMS7003;67572;50.930;18.276;2023-04-24T10:20:55;13.00;13.00;10.67
78316;PMS7003;67572;50.930;18.276;2023-04-24T10:24:01;10.67;10.67;9.67
78316;PMS7003;67572;50.930;18.276;2023-04-24T10:27:06;13.00;11.00;10.67
78316;PMS7003;67572;50.930;18.276;2023-04-24T10:30:12;12.33;12.33;7.33
78316;PMS7003;67572;50.930;18.276;2023-04-24T10:33:16;15.00;14.33;11.33
78316;PMS7003;67572;50.930;18.276;2023-04-24T10:36:21;16.33;16.33;13.00
78316;PMS7003;67572;50.930;18.276;2023-04-24T10:39:29;17.00;17.00;10.67
78316;PMS7003;67572;50.930;18.276;2023-04-24T10:42:35;19.33;18.33;13.00
78316;PMS7003;67572;50.930;18.276;2023-04-24T10:45:43;16.00;15.67;11.00
78316;PMS7003;67572;50.930;18.276;2023-04-24T10:49:04;13.67;12.33;11.67
78316;PMS7003;67572;50.930;18.276;2023-04-24T10:52:10;14.00;14.00;12.33
78316;PMS7003;67572;50.930;18.276;2023-04-24T10:55:15;12.33;10.00;9.00
78316;PMS7003;67572;50.930;18.276;2023-04-24T10:58:21;11.33;11.33;10.33
78316;PMS7003;67572;50.930;18.276;2023-04-24T11:01:26;13.00;11.00;9.00
78316;PMS7003;67572;50.930;18.276;2023-04-24T11:04:33;15.67;15.33;11.67
78316;PMS7003;67572;50.930;18.276;2023-04-24T11:11:15;13.00;13.00;11.33
78316;PMS7003;67572;50.930;18.276;2023-04-24T11:14:19;15.67;14.67;12.67
78316;PMS7003;67572;50.930;18.276;2023-04-24T11:17:28;11.67;9.33;7.00
78316;PMS7003;67572;50.930;18.276;2023-04-24T11:20:32;14.33;14.33;12.00
78316;PMS7003;67572;50.930;18.276;2023-04-24T11:23:35;16.33;14.00;13.00
78316;PMS7003;67572;50.930;18.276;2023-04-24T11:26:41;15.00;11.33;10.00
78316;PMS7003;67572;50.930;18.276;2023-04-24T11:29:45;15.00;14.00;9.67
78316;PMS7003;67572;50.930;18.276;2023-04-24T11:32:50;14.00;14.00;10.67
78316;PMS7003;67572;50.930;18.276;2023-04-24T11:35:54;7.00;7.00;5.00
78316;PMS7003;67572;50.930;18.276;2023-04-24T11:38:57;11.00;11.00;9.67
78316;PMS7003;67572;50.930;18.276;2023-04-24T11:42:03;14.33;13.33;11.00
78316;PMS7003;67572;50.930;18.276;2023-04-24T11:45:10;14.33;14.33;11.67
78316;PMS7003;67572;50.930;18.276;2023-04-24T11:48:18;13.33;13.00;9.00
78316;PMS7003;67572;50.930;18.276;2023-04-24T11:51:24;15.00;11.33;10.00
78316;PMS7003;67572;50.930;18.276;2023-04-24T11:54:37;10.33;9.33;7.33
78316;PMS7003;67572;50.930;18.276;2023-04-24T11:57:43;17.67;17.67;11.00
78316;PMS7003;67572;50.930;18.276;2023-04-24T12:00:54;10.33;7.67;5.67
78316;PMS7003;67572;50.930;18.276;2023-04-24T12:03:59;14.67;10.67;10.33
78316;PMS7003;67572;50.930;18.276;2023-04-24T12:07:03;10.33;10.00;8.33
78316;PMS7003;67572;50.930;18.276;2023-04-24T12:10:07;15.67;15.00;13.00
78316;PMS7003;67572;50.930;18.276;2023-04-24T12:13:13;17.33;11.33;8.00
78316;PMS7003;67572;50.930;18.276;2023-04-24T12:16:16;10.00;10.00;9.67
78316;PMS7003;67572;50.930;18.276;2023-04-24T12:19:20;14.00;13.00;10.67
78316;PMS7003;67572;50.930;18.276;2023-04-24T12:22:24;14.00;14.00;10.00
78316;PMS7003;67572;50.930;18.276;2023-04-24T12:25:29;14.00;14.00;13.00
78316;PMS7003;67572;50.930;18.276;2023-04-24T12:28:36;9.33;9.33;8.67
78316;PMS7003;67572;50.930;18.276;2023-04-24T12:31:40;7.33;6.33;6.00
78316;PMS7003;67572;50.930;18.276;2023-04-24T12:34:44;18.00;15.67;13.33
78316;PMS7003;67572;50.930;18.276;2023-04-24T12:37:47;9.67;9.67;9.00
78316;PMS7003;67572;50.930;18.276;2023-04-24T12:41:01;10.00;10.00;9.33
78316;PMS7003;67572;50.930;18.276;2023-04-24T12:44:10;18.67;15.00;12.00
78316;PMS7003;67572;50.930;18.276;2023-04-24T12:47:14;12.33;12.33;12.00
78316;PMS7003;67572;50.930;18.276;2023-04-24T12:50:18;15.00;14.67;11.33
78316;PMS7003;67572;50.930;18.276;2023-04-24T12:53:21;8.33;6.67;5.00
78316;PMS7003;67572;50.930;18.276;2023-04-24T12:56:28;19.00;15.67;12.33
78316;PMS7003;67572;50.930;18.276;2023-04-24T12:59:33;14.67;13.00;12.00
78316;PMS7003;67572;50.930;18.276;2023-04-24T13:02:37;9.67;8.00;6.00
78316;PMS7003;67572;50.930;18.276;2023-04-24T13:05:42;17.67;13.67;11.33
78316;PMS7003;67572;50.930;18.276;2023-04-24T13:08:46;16.33;12.67;10.67
78316;PMS7003;67572;50.930;18.276;2023-04-24T13:11:50;13.67;12.00;9.33
78316;PMS7003;67572;50.930;18.276;2023-04-24T13:14:55;12.00;10.33;8.00
78316;PMS7003;67572;50.930;18.276;2023-04-24T13:17:59;15.33;14.33;12.00
78316;PMS7003;67572;50.930;18.276;2023-04-24T13:21:02;17.67;14.67;10.33
78316;PMS7003;67572;50.930;18.276;2023-04-24T13:24:06;17.00;12.33;10.33
78316;PMS7003;67572;50.930;18.276;2023-04-24T13:27:11;19.33;17.33;13.33
78316;PMS7003;67572;50.930;18.276;2023-04-24T13:30:16;14.33;11.00;8.33
78316;PMS7003;67572;50.930;18.276;2023-04-24T13:33:19;13.00;12.33;10.33
78316;PMS7003;67572;50.930;18.276;2023-04-24T13:36:23;11.00;11.00;8.67
78316;PMS7003;67572;50.930;18.276;2023-04-24T13:39:27;14.67;13.00;10.67
78316;PMS7003;67572;50.930;18.276;2023-04-24T13:42:31;16.67;16.00;13.00
78316;PMS7003;67572;50.930;18.276;2023-04-24T13:45:36;17.00;14.33;12.67
78316;PMS7003;67572;50.930;18.276;2023-04-24T13:48:40;21.33;19.67;16.67
78316;PMS7003;67572;50.930;18.276;2023-04-24T13:51:43;18.67;16.00;12.33
78316;PMS7003;67572;50.930;18.276;2023-04-24T13:54:47;16.00;10.33;9.00
78316;PMS7003;67572;50.930;18.276;2023-04-24T13:57:51;19.33;17.33;13.00
78316;PMS7003;67572;50.930;18.276;2023-04-24T14:00:58;20.33;16.00;13.00
78316;PMS7003;67572;50.930;18.276;2023-04-24T14:04:01;16.00;15.33;13.00
78316;PMS7003;67572;50.930;18.276;2023-04-24T14:07:05;22.00;18.67;15.00
78316;PMS7003;67572;50.930;18.276;2023-04-24T14:10:10;17.33;17.00;13.00
78316;PMS7003;67572;50.930;18.276;2023-04-24T14:13:13;20.67;17.67;14.67
78316;PMS7003;67572;50.930;18.276;2023-04-24T14:16:18;12.67;11.33;9.00
78316;PMS7003;67572;50.930;18.276;2023-04-24T14:19:22;15.67;14.67;9.00
78316;PMS7003;67572;50.930;18.276;2023-04-24T14:22:25;14.00;11.00;8.33
78316;PMS7003;67572;50.930;18.276;2023-04-24T14:25:29;16.67;14.67;12.00
78316;PMS7003;67572;50.930;18.276;2023-04-24T14:28:33;18.67;18.00;13.00
78316;PMS7003;67572;50.930;18.276;2023-04-24T14:31:38;17.33;16.00;12.67
78316;PMS7003;67572;50.930;18.276;2023-04-24T14:34:41;19.67;15.00;11.67
78316;PMS7003;67572;50.930;18.276;2023-04-24T14:37:45;21.00;17.00;14.33
78316;PMS7003;67572;50.930;18.276;2023-04-24T14:40:49;16.00;16.00;11.33
78316;PMS7003;67572;50.930;18.276;2023-04-24T14:44:07;19.00;19.00;16.00
78316;PMS7003;67572;50.930;18.276;2023-04-24T14:47:12;23.67;23.67;15.00
78316;PMS7003;67572;50.930;18.276;2023-04-24T14:50:15;22.00;19.67;16.00
78316;PMS7003;67572;50.930;18.276;2023-04-24T14:53:20;13.33;13.33;11.00
78316;PMS7003;67572;50.930;18.276;2023-04-24T14:56:23;13.33;13.33;12.00
78316;PMS7003;67572;50.930;18.276;2023-04-24T14:59:27;19.00;19.00;14.00
78316;PMS7003;67572;50.930;18.276;2023-04-24T15:02:32;22.67;18.67;16.00
78316;PMS7003;67572;50.930;18.276;2023-04-24T15:05:36;23.00;19.67;15.00
78316;PMS7003;67572;50.930;18.276;2023-04-24T15:08:40;18.33;18.00;12.00
78316;PMS7003;67572;50.930;18.276;2023-04-24T15:11:43;20.67;17.33;11.67
78316;PMS7003;67572;50.930;18.276;2023-04-24T15:14:47;22.00;21.00;17.00
78316;PMS7003;67572;50.930;18.276;2023-04-24T15:17:51;17.67;16.33;10.33
78316;PMS7003;67572;50.930;18.276;2023-04-24T15:20:55;18.67;18.67;15.00
78316;PMS7003;67572;50.930;18.276;2023-04-24T15:23:58;15.00;15.00;14.00
78316;PMS7003;67572;50.930;18.276;2023-04-24T15:27:02;15.00;14.67;11.67
78316;PMS7003;67572;50.930;18.276;2023-04-24T15:30:06;20.00;18.00;17.00
78316;PMS7003;67572;50.930;18.276;2023-04-24T15:33:12;24.00;19.67;15.00
78316;PMS7003;67572;50.930;18.276;2023-04-24T15:36:16;19.67;19.67;17.00
78316;PMS7003;67572;50.930;18.276;2023-04-24T15:39:21;24.67;22.67;18.33
78316;PMS7003;67572;50.930;18.276;2023-04-24T15:42:26;27.67;24.67;17.67
78316;PMS7003;67572;50.930;18.276;2023-04-24T15:45:32;14.33;13.00;9.67
78316;PMS7003;67572;50.930;18.276;2023-04-24T15:48:38;20.67;18.67;15.00
78316;PMS7003;67572;50.930;18.276;2023-04-24T15:51:42;31.33;27.00;19.33
78316;PMS7003;67572;50.930;18.276;2023-04-24T15:54:46;15.00;15.00;14.00
78316;PMS7003;67572;50.930;18.276;2023-04-24T15:57:49;25.33;24.33;20.00
78316;PMS7003;67572;50.930;18.276;2023-04-24T16:00:53;24.00;22.67;18.00
78316;PMS7003;67572;50.930;18.276;2023-04-24T16:03:58;17.33;17.33;12.33
78316;PMS7003;67572;50.930;18.276;2023-04-24T16:07:02;17.33;14.00;11.00
78316;PMS7003;67572;50.930;18.276;2023-04-24T16:10:06;21.33;20.00;15.00
78316;PMS7003;67572;50.930;18.276;2023-04-24T16:13:10;29.67;23.67;16.00
78316;PMS7003;67572;50.930;18.276;2023-04-24T16:16:13;18.00;18.00;13.67
78316;PMS7003;67572;50.930;18.276;2023-04-24T16:19:18;28.25;26.75;15.25
78316;PMS7003;67572;50.930;18.276;2023-04-24T16:22:22;34.25;29.25;21.50
78316;PMS7003;67572;50.930;18.276;2023-04-24T16:25:25;42.25;40.00;29.50
78316;PMS7003;67572;50.930;18.276;2023-04-24T16:28:29;32.00;31.00;23.00
78316;PMS7003;67572;50.930;18.276;2023-04-24T16:31:33;43.00;38.75;28.50
78316;PMS7003;67572;50.930;18.276;2023-04-24T16:34:37;35.00;31.50;24.50
78316;PMS7003;67572;50.930;18.276;2023-04-24T16:37:41;99.25;79.00;50.75
78316;PMS7003;67572;50.930;18.276;2023-04-24T16:40:44;46.25;45.00;29.25
78316;PMS7003;67572;50.930;18.276;2023-04-24T16:43:48;25.25;23.50;18.50
78316;PMS7003;67572;50.930;18.276;2023-04-24T16:46:51;35.50;28.50;21.00
78316;PMS7003;67572;50.930;18.276;2023-04-24T16:49:56;44.00;29.75;22.50
78316;PMS7003;67572;50.930;18.276;2023-04-24T16:52:59;49.25;43.75;27.50
78316;PMS7003;67572;50.930;18.276;2023-04-24T16:56:03;48.75;43.50;30.50
78316;PMS7003;67572;50.930;18.276;2023-04-24T16:59:07;31.00;26.25;20.75
78316;PMS7003;67572;50.930;18.276;2023-04-24T17:02:10;19.25;19.25;14.00
78316;PMS7003;67572;50.930;18.276;2023-04-24T17:05:15;34.25;29.75;22.75
78316;PMS7003;67572;50.930;18.276;2023-04-24T17:08:20;40.75;35.25;21.75
78316;PMS7003;67572;50.930;18.276;2023-04-24T17:11:24;35.75;31.75;24.25
78316;PMS7003;67572;50.930;18.276;2023-04-24T17:14:29;39.75;34.50;27.50
78316;PMS7003;67572;50.930;18.276;2023-04-24T17:17:33;39.50;34.50;25.25